Wetterdaten: Woche 19.06.17 - 25.06.17 (KW25)
Datum Zeit Temp. I. Temp. A. Feuchte I. Feuchte A. Luftdruck Regen Wind Richtung Sonnenschein UV Solar Taupunkt Windchill Windben
19.06.2017 00:00 25,2 C 13,7 C 47 % 85 % 1023,5 hPa 0,0 l/m 0,0 km/h (0 Bft) N 0,00 h 0,0 UV-I 0 W/m 11,3 C 13,7 C 0,0 km/h (0 Bft)
19.06.2017 01:00 25,2 C 12,8 C 47 % 88 % 1023,5 hPa 0,0 l/m 0,0 km/h (0 Bft) N 0,00 h 0,0 UV-I 0 W/m 10,9 C 12,8 C 0,0 km/h (0 Bft)
19.06.2017 02:00 25,1 C 12,0 C 47 % 90 % 1023,2 hPa 0,0 l/m 0,0 km/h (0 Bft) N 0,00 h 0,0 UV-I 0 W/m 10,4 C 12,0 C 0,0 km/h (0 Bft)
19.06.2017 03:00 25,2 C 11,3 C 47 % 91 % 1023,0 hPa 0,0 l/m 0,0 km/h (0 Bft) N 0,00 h 0,0 UV-I 0 W/m 9,9 C 11,3 C 0,0 km/h (0 Bft)
19.06.2017 04:00 25,3 C 11,0 C 46 % 92 % 1022,9 hPa 0,0 l/m 0,0 km/h (0 Bft) N 0,00 h 0,0 UV-I 0 W/m 9,7 C 11,0 C 0,0 km/h (0 Bft)
19.06.2017 05:00 25,1 C 10,3 C 46 % 93 % 1022,7 hPa 0,0 l/m 0,0 km/h (0 Bft) N 0,00 h 0,0 UV-I 10 W/m 9,2 C 10,3 C 0,0 km/h (0 Bft)
19.06.2017 06:00 25,2 C 11,5 C 46 % 92 % 1023,0 hPa 0,0 l/m 0,0 km/h (0 Bft) N 0,00 h 0,0 UV-I 20 W/m 10,3 C 11,5 C 0,0 km/h (0 Bft)
19.06.2017 07:00 25,4 C 15,5 C 47 % 84 % 1022,9 hPa 0,0 l/m 0,0 km/h (0 Bft) N 0,62 h 1,0 UV-I 220 W/m 12,7 C 15,5 C 0,1 km/h (0 Bft)
19.06.2017 08:00 25,1 C 20,3 C 47 % 63 % 1022,9 hPa 0,0 l/m 1,1 km/h (0 Bft) O-SO 1,00 h 2,0 UV-I 488 W/m 13,0 C 20,3 C 2,4 km/h (1 Bft)
19.06.2017 09:00 24,7 C 22,1 C 46 % 54 % 1022,8 hPa 0,0 l/m 4,4 km/h (1 Bft) SO 1,00 h 3,1 UV-I 634 W/m 12,4 C 21,9 C 8,0 km/h (2 Bft)
19.06.2017 10:00 24,9 C 23,3 C 46 % 49 % 1022,3 hPa 0,0 l/m 4,6 km/h (1 Bft) O-SO 1,00 h 5,0 UV-I 757 W/m 12,0 C 23,2 C 9,1 km/h (2 Bft)
19.06.2017 11:00 25,0 C 24,3 C 45 % 46 % 1021,8 hPa 0,0 l/m 4,9 km/h (1 Bft) SO 1,00 h 6,4 UV-I 841 W/m 12,1 C 24,1 C 10,2 km/h (2 Bft)
19.06.2017 12:00 25,3 C 26,1 C 45 % 43 % 1021,4 hPa 0,0 l/m 2,9 km/h (1 Bft) O-SO 1,00 h 7,3 UV-I 884 W/m 12,5 C 26,1 C 6,6 km/h (2 Bft)
19.06.2017 13:00 25,4 C 26,8 C 45 % 39 % 1020,7 hPa 0,0 l/m 4,9 km/h (1 Bft) SO 1,00 h 7,4 UV-I 888 W/m 11,7 C 26,7 C 9,6 km/h (2 Bft)
19.06.2017 14:00 25,6 C 27,6 C 44 % 35 % 1019,9 hPa 0,0 l/m 4,5 km/h (1 Bft) SO 1,00 h 6,8 UV-I 848 W/m 10,9 C 27,5 C 8,7 km/h (2 Bft)
19.06.2017 15:00 25,6 C 28,4 C 44 % 34 % 1019,4 hPa 0,0 l/m 4,1 km/h (1 Bft) O-SO 1,00 h 5,5 UV-I 765 W/m 10,7 C 28,3 C 7,8 km/h (2 Bft)
19.06.2017 16:00 25,6 C 28,4 C 43 % 34 % 1018,6 hPa 0,0 l/m 4,0 km/h (1 Bft) O-SO 1,00 h 4,0 UV-I 644 W/m 11,2 C 28,4 C 7,5 km/h (2 Bft)
19.06.2017 17:00 25,6 C 28,6 C 43 % 34 % 1018,0 hPa 0,0 l/m 2,9 km/h (1 Bft) O 0,92 h 2,5 UV-I 465 W/m 11,1 C 28,5 C 6,5 km/h (2 Bft)
19.06.2017 18:00 25,7 C 27,9 C 42 % 33 % 1017,4 hPa 0,0 l/m 2,2 km/h (1 Bft) SO 0,00 h 0,0 UV-I 39 W/m 10,1 C 27,9 C 4,7 km/h (1 Bft)
19.06.2017 19:00 25,8 C 27,3 C 43 % 33 % 1017,1 hPa 0,0 l/m 0,5 km/h (0 Bft) O 0,00 h 0,0 UV-I 26 W/m 9,7 C 27,3 C 1,9 km/h (1 Bft)
19.06.2017 20:00 25,6 C 26,2 C 44 % 38 % 1017,0 hPa 0,0 l/m 0,2 km/h (0 Bft) O 0,00 h 0,0 UV-I 16 W/m 10,7 C 26,2 C 0,6 km/h (0 Bft)
19.06.2017 21:00 25,6 C 23,2 C 45 % 49 % 1017,1 hPa 0,0 l/m 0,0 km/h (0 Bft) N 0,00 h 0,0 UV-I 7 W/m 11,9 C 23,2 C 0,0 km/h (0 Bft)
19.06.2017 22:00 25,6 C 20,5 C 46 % 61 % 1017,1 hPa 0,0 l/m 0,0 km/h (0 Bft) N 0,00 h 0,0 UV-I 0 W/m 12,7 C 20,5 C 0,1 km/h (0 Bft)
19.06.2017 23:00 25,2 C 18,2 C 48 % 72 % 1017,2 hPa 0,0 l/m 0,0 km/h (0 Bft) N 0,00 h 0,0 UV-I 0 W/m 13,0 C 18,2 C 0,0 km/h (0 Bft)
20.06.2017 00:00 25,3 C 16,6 C 48 % 79 % 1017,0 hPa 0,0 l/m 0,0 km/h (0 Bft) N 0,00 h 0,0 UV-I 0 W/m 12,8 C 16,6 C 0,0 km/h (0 Bft)
20.06.2017 01:00 25,2 C 15,2 C 48 % 82 % 1016,8 hPa 0,0 l/m 0,0 km/h (0 Bft) N 0,00 h 0,0 UV-I 0 W/m 12,3 C 15,2 C 0,0 km/h (0 Bft)
20.06.2017 02:00 25,2 C 14,4 C 48 % 84 % 1016,5 hPa 0,0 l/m 0,0 km/h (0 Bft) N 0,00 h 0,0 UV-I 0 W/m 11,8 C 14,4 C 0,0 km/h (0 Bft)
20.06.2017 03:00 25,1 C 13,5 C 48 % 88 % 1016,3 hPa 0,0 l/m 0,0 km/h (0 Bft) N 0,00 h 0,0 UV-I 0 W/m 11,5 C 13,5 C 0,0 km/h (0 Bft)
20.06.2017 04:00 25,1 C 12,7 C 48 % 90 % 1016,2 hPa 0,0 l/m 0,0 km/h (0 Bft) N 0,00 h 0,0 UV-I 0 W/m 11,1 C 12,7 C 0,0 km/h (0 Bft)
20.06.2017 05:00 25,0 C 12,0 C 48 % 92 % 1016,3 hPa 0,0 l/m 0,0 km/h (0 Bft) N 0,00 h 0,0 UV-I 13 W/m 10,7 C 12,0 C 0,0 km/h (0 Bft)
20.06.2017 06:00 25,0 C 13,0 C 48 % 88 % 1016,2 hPa 0,0 l/m 0,0 km/h (0 Bft) N 0,00 h 0,0 UV-I 31 W/m 11,1 C 13,0 C 0,0 km/h (0 Bft)
20.06.2017 07:00 25,2 C 16,3 C 49 % 79 % 1016,2 hPa 0,0 l/m 0,0 km/h (0 Bft) N 0,63 h 1,0 UV-I 228 W/m 12,7 C 16,3 C 0,0 km/h (0 Bft)
20.06.2017 08:00 25,1 C 20,5 C 49 % 67 % 1015,9 hPa 0,0 l/m 0,0 km/h (0 Bft) N 1,00 h 1,7 UV-I 452 W/m 14,2 C 20,5 C 0,0 km/h (0 Bft)
20.06.2017 09:00 25,0 C 24,4 C 49 % 54 % 1015,7 hPa 0,0 l/m 0,5 km/h (0 Bft) S-SO 1,00 h 2,8 UV-I 619 W/m 14,3 C 24,4 C 2,0 km/h (1 Bft)
20.06.2017 10:00 25,2 C 27,1 C 47 % 42 % 1015,4 hPa 0,0 l/m 1,2 km/h (1 Bft) S 1,00 h 4,4 UV-I 748 W/m 13,1 C 27,1 C 3,4 km/h (1 Bft)
20.06.2017 11:00 25,5 C 29,0 C 48 % 38 % 1015,1 hPa 0,0 l/m 3,2 km/h (1 Bft) W-SW 1,00 h 5,6 UV-I 827 W/m 13,1 C 29,0 C 6,8 km/h (2 Bft)
20.06.2017 12:00 25,7 C 29,9 C 47 % 36 % 1014,6 hPa 0,0 l/m 5,2 km/h (1 Bft) W-SW 1,00 h 6,3 UV-I 865 W/m 13,1 C 29,8 C 10,6 km/h (2 Bft)
20.06.2017 13:00 25,8 C 30,3 C 46 % 35 % 1014,3 hPa 0,0 l/m 5,9 km/h (2 Bft) W-SW 1,00 h 6,5 UV-I 865 W/m 13,2 C 30,2 C 12,0 km/h (2 Bft)
20.06.2017 14:00 25,8 C 30,9 C 47 % 34 % 1013,8 hPa 0,0 l/m 5,8 km/h (2 Bft) W-SW 1,00 h 6,0 UV-I 831 W/m 13,0 C 30,8 C 10,6 km/h (2 Bft)
20.06.2017 15:00 25,8 C 31,3 C 47 % 33 % 1013,4 hPa 0,0 l/m 5,9 km/h (2 Bft) W-NW 1,00 h 4,9 UV-I 754 W/m 13,3 C 31,3 C 11,3 km/h (2 Bft)
20.06.2017 16:00 25,8 C 31,2 C 48 % 34 % 1013,2 hPa 0,0 l/m 4,2 km/h (1 Bft) W 0,93 h 3,4 UV-I 606 W/m 13,3 C 31,2 C 8,5 km/h (2 Bft)
20.06.2017 17:00 25,8 C 30,7 C 48 % 30 % 1013,0 hPa 0,0 l/m 4,8 km/h (1 Bft) NW 0,93 h 2,2 UV-I 459 W/m 11,2 C 30,6 C 9,4 km/h (2 Bft)
20.06.2017 18:00 25,9 C 29,3 C 47 % 33 % 1012,8 hPa 0,0 l/m 3,3 km/h (1 Bft) W-NW 0,00 h 1,0 UV-I 65 W/m 11,5 C 29,3 C 7,0 km/h (2 Bft)
20.06.2017 19:00 25,9 C 28,2 C 48 % 41 % 1012,8 hPa 0,0 l/m 5,7 km/h (1 Bft) N 0,00 h 0,6 UV-I 72 W/m 13,8 C 28,0 C 10,8 km/h (2 Bft)
20.06.2017 20:00 25,8 C 25,7 C 48 % 50 % 1013,3 hPa 0,0 l/m 6,3 km/h (2 Bft) N 0,00 h 0,0 UV-I 28 W/m 14,6 C 25,3 C 12,0 km/h (2 Bft)
20.06.2017 21:00 25,8 C 23,9 C 48 % 55 % 1013,8 hPa 0,0 l/m 1,5 km/h (1 Bft) N-NW 0,00 h 0,0 UV-I 8 W/m 14,2 C 23,9 C 4,1 km/h (1 Bft)
20.06.2017 22:00 25,7 C 22,5 C 49 % 60 % 1014,5 hPa 0,0 l/m 0,1 km/h (0 Bft) N 0,00 h 0,0 UV-I 0 W/m 14,2 C 22,5 C 0,2 km/h (0 Bft)
20.06.2017 23:00 25,6 C 21,2 C 50 % 66 % 1014,9 hPa 0,0 l/m 0,0 km/h (0 Bft) N 0,00 h 0,0 UV-I 0 W/m 14,5 C 21,2 C 0,2 km/h (0 Bft)
21.06.2017 00:00 25,6 C 20,0 C 50 % 72 % 1015,0 hPa 0,0 l/m 2,8 km/h (1 Bft) N 0,00 h 0,0 UV-I 0 W/m 14,7 C 20,0 C 5,7 km/h (1 Bft)
21.06.2017 01:00 25,6 C 19,2 C 50 % 75 % 1015,2 hPa 0,0 l/m 0,0 km/h (0 Bft) N 0,00 h 0,0 UV-I 0 W/m 14,7 C 19,2 C 0,1 km/h (0 Bft)
21.06.2017 02:00 25,5 C 18,2 C 51 % 79 % 1015,0 hPa 0,0 l/m 0,0 km/h (0 Bft) N 0,00 h 0,0 UV-I 0 W/m 14,5 C 18,2 C 0,0 km/h (0 Bft)
21.06.2017 03:00 25,4 C 16,9 C 51 % 84 % 1014,9 hPa 0,0 l/m 0,0 km/h (0 Bft) N 0,00 h 0,0 UV-I 0 W/m 14,1 C 16,9 C 0,0 km/h (0 Bft)
21.06.2017 04:00 25,4 C 16,5 C 51 % 85 % 1015,1 hPa 0,0 l/m 2,3 km/h (1 Bft) N 0,00 h 0,0 UV-I 0 W/m 14,1 C 16,5 C 4,1 km/h (1 Bft)
21.06.2017 05:00 25,3 C 15,7 C 52 % 87 % 1015,2 hPa 0,0 l/m 0,0 km/h (0 Bft) NW 0,00 h 0,0 UV-I 15 W/m 13,6 C 15,7 C 0,0 km/h (0 Bft)
21.06.2017 06:00 25,4 C 16,4 C 51 % 87 % 1015,4 hPa 0,0 l/m 3,0 km/h (1 Bft) N 0,00 h 0,5 UV-I 42 W/m 14,2 C 16,3 C 3,7 km/h (1 Bft)
21.06.2017 07:00 25,7 C 18,7 C 52 % 81 % 1015,5 hPa 0,0 l/m 1,7 km/h (1 Bft) N 0,45 h 0,8 UV-I 187 W/m 15,3 C 18,7 C 3,2 km/h (1 Bft)
21.06.2017 08:00 25,5 C 20,9 C 53 % 73 % 1015,6 hPa 0,0 l/m 2,9 km/h (1 Bft) N-NW 1,00 h 1,6 UV-I 378 W/m 15,9 C 20,8 C 4,0 km/h (1 Bft)
21.06.2017 09:00 25,3 C 22,4 C 54 % 68 % 1015,4 hPa 0,0 l/m 2,3 km/h (1 Bft) N-NO 1,00 h 2,1 UV-I 339 W/m 16,2 C 22,4 C 4,8 km/h (1 Bft)
21.06.2017 10:00 25,7 C 24,0 C 53 % 63 % 1015,2 hPa 0,0 l/m 1,1 km/h (1 Bft) N 1,00 h 3,5 UV-I 485 W/m 16,6 C 24,0 C 0,7 km/h (0 Bft)
21.06.2017 11:00 26,0 C 26,1 C 53 % 58 % 1015,1 hPa 0,0 l/m 1,8 km/h (1 Bft) N 1,00 h 4,5 UV-I 599 W/m 17,1 C 26,0 C 1,4 km/h (1 Bft)
21.06.2017 12:00 26,1 C 27,9 C 54 % 52 % 1014,8 hPa 0,0 l/m 3,5 km/h (1 Bft) NW 1,00 h 6,4 UV-I 787 W/m 17,2 C 27,8 C 5,1 km/h (1 Bft)
21.06.2017 13:00 26,1 C 29,0 C 53 % 49 % 1014,4 hPa 0,0 l/m 2,2 km/h (1 Bft) N 1,00 h 6,3 UV-I 893 W/m 17,1 C 29,0 C 3,8 km/h (1 Bft)
21.06.2017 14:00 26,2 C 28,8 C 53 % 49 % 1013,8 hPa 0,0 l/m 3,5 km/h (1 Bft) N 1,00 h 5,4 UV-I 772 W/m 16,9 C 28,7 C 4,8 km/h (1 Bft)
21.06.2017 15:00 26,2 C 28,8 C 53 % 47 % 1013,3 hPa 0,0 l/m 7,7 km/h (2 Bft) N 1,00 h 3,9 UV-I 517 W/m 16,3 C 28,6 C 9,7 km/h (2 Bft)
21.06.2017 16:00 26,2 C 28,9 C 52 % 43 % 1013,2 hPa 0,0 l/m 4,9 km/h (1 Bft) N 1,00 h 3,2 UV-I 511 W/m 15,1 C 28,8 C 8,1 km/h (2 Bft)
21.06.2017 17:00 26,6 C 27,9 C 51 % 43 % 1013,1 hPa 0,0 l/m 5,5 km/h (1 Bft) N 0,90 h 2,1 UV-I 392 W/m 14,1 C 27,8 C 1,4 km/h (1 Bft)
21.06.2017 18:00 26,7 C 26,0 C 50 % 48 % 1013,1 hPa 0,0 l/m 6,6 km/h (2 Bft) N 0,43 h 1,0 UV-I 139 W/m 14,0 C 25,7 C 4,2 km/h (1 Bft)
21.06.2017 19:00 26,7 C 25,1 C 51 % 49 % 1013,2 hPa 0,0 l/m 2,9 km/h (1 Bft) N-NO 0,00 h 0,7 UV-I 43 W/m 13,7 C 25,0 C 4,3 km/h (1 Bft)
21.06.2017 20:00 26,4 C 23,6 C 51 % 54 % 1013,5 hPa 0,0 l/m 2,1 km/h (1 Bft) N 0,00 h 0,0 UV-I 20 W/m 13,7 C 23,6 C 4,3 km/h (1 Bft)
21.06.2017 21:00 26,3 C 22,2 C 51 % 58 % 1013,9 hPa 0,0 l/m 0,8 km/h (0 Bft) N 0,00 h 0,0 UV-I 6 W/m 13,6 C 22,2 C 2,1 km/h (1 Bft)
21.06.2017 22:00 26,4 C 20,3 C 51 % 67 % 1014,7 hPa 0,0 l/m 0,1 km/h (0 Bft) O 0,00 h 0,0 UV-I 0 W/m 14,0 C 20,3 C 0,3 km/h (0 Bft)
21.06.2017 23:00 26,2 C 18,4 C 52 % 75 % 1014,8 hPa 0,0 l/m 0,1 km/h (0 Bft) O-SO 0,00 h 0,0 UV-I 0 W/m 14,0 C 18,4 C 0,3 km/h (0 Bft)
22.06.2017 00:00 26,1 C 16,8 C 52 % 81 % 1014,8 hPa 0,0 l/m 0,0 km/h (0 Bft) N 0,00 h 0,0 UV-I 0 W/m 13,6 C 16,8 C 0,0 km/h (0 Bft)
22.06.2017 01:00 26,0 C 15,8 C 52 % 84 % 1014,7 hPa 0,0 l/m 0,0 km/h (0 Bft) N 0,00 h 0,0 UV-I 0 W/m 13,1 C 15,8 C 0,2 km/h (0 Bft)
22.06.2017 02:00 25,8 C 15,0 C 52 % 87 % 1014,6 hPa 0,0 l/m 0,0 km/h (0 Bft) N 0,00 h 0,0 UV-I 0 W/m 12,9 C 15,0 C 0,0 km/h (0 Bft)
22.06.2017 03:00 25,8 C 14,3 C 52 % 89 % 1014,6 hPa 0,0 l/m 0,0 km/h (0 Bft) N 0,00 h 0,0 UV-I 0 W/m 12,5 C 14,3 C 0,0 km/h (0 Bft)
22.06.2017 04:00 25,8 C 13,6 C 51 % 91 % 1014,4 hPa 0,0 l/m 0,0 km/h (0 Bft) N 0,00 h 0,0 UV-I 0 W/m 12,1 C 13,6 C 0,0 km/h (0 Bft)
22.06.2017 05:00 25,7 C 13,1 C 51 % 92 % 1014,4 hPa 0,0 l/m 0,0 km/h (0 Bft) N 0,00 h 0,0 UV-I 11 W/m 11,8 C 13,1 C 0,0 km/h (0 Bft)
22.06.2017 06:00 25,7 C 13,8 C 51 % 90 % 1014,4 hPa 0,0 l/m 0,0 km/h (0 Bft) N 0,00 h 0,0 UV-I 27 W/m 12,2 C 13,8 C 0,0 km/h (0 Bft)
22.06.2017 07:00 25,7 C 17,0 C 51 % 80 % 1014,7 hPa 0,0 l/m 0,0 km/h (0 Bft) N 0,62 h 1,0 UV-I 216 W/m 13,5 C 17,0 C 0,0 km/h (0 Bft)
22.06.2017 08:00 25,8 C 21,0 C 51 % 68 % 1014,7 hPa 0,0 l/m 0,0 km/h (0 Bft) N 1,00 h 1,8 UV-I 457 W/m 14,9 C 21,0 C 0,0 km/h (0 Bft)
22.06.2017 09:00 26,0 C 24,8 C 51 % 58 % 1014,3 hPa 0,0 l/m 1,2 km/h (1 Bft) S-SO 1,00 h 2,8 UV-I 600 W/m 15,8 C 24,8 C 2,5 km/h (1 Bft)
22.06.2017 10:00 26,2 C 27,5 C 50 % 48 % 1014,0 hPa 0,0 l/m 2,3 km/h (1 Bft) N 1,00 h 4,3 UV-I 691 W/m 15,3 C 27,4 C 3,1 km/h (1 Bft)
22.06.2017 11:00 26,6 C 29,0 C 50 % 44 % 1013,8 hPa 0,0 l/m 5,2 km/h (1 Bft) W-SW 1,00 h 5,4 UV-I 786 W/m 15,5 C 28,8 C 8,6 km/h (2 Bft)
22.06.2017 12:00 26,6 C 29,5 C 51 % 44 % 1013,3 hPa 0,0 l/m 6,8 km/h (2 Bft) SW 1,00 h 5,8 UV-I 772 W/m 16,1 C 29,3 C 12,5 km/h (3 Bft)
22.06.2017 13:00 26,4 C 30,2 C 51 % 43 % 1012,6 hPa 0,0 l/m 9,5 km/h (2 Bft) W-SW 1,00 h 5,8 UV-I 768 W/m 16,1 C 30,0 C 16,8 km/h (3 Bft)
22.06.2017 14:00 26,5 C 31,1 C 51 % 40 % 1011,9 hPa 0,0 l/m 9,6 km/h (2 Bft) W 1,00 h 5,4 UV-I 773 W/m 15,9 C 30,9 C 16,2 km/h (3 Bft)
22.06.2017 15:00 26,6 C 31,7 C 51 % 39 % 1011,3 hPa 0,0 l/m 9,4 km/h (2 Bft) W-SW 1,00 h 4,7 UV-I 730 W/m 16,0 C 31,6 C 15,9 km/h (3 Bft)
22.06.2017 16:00 26,6 C 32,2 C 51 % 36 % 1010,9 hPa 0,0 l/m 8,5 km/h (2 Bft) W-SW 1,00 h 3,4 UV-I 602 W/m 15,0 C 32,1 C 13,2 km/h (3 Bft)
22.06.2017 17:00 26,7 C 31,2 C 50 % 35 % 1010,3 hPa 0,0 l/m 6,5 km/h (2 Bft) W-SW 1,00 h 1,8 UV-I 323 W/m 13,7 C 31,1 C 11,4 km/h (2 Bft)
22.06.2017 18:00 26,7 C 30,4 C 50 % 34 % 1009,9 hPa 0,0 l/m 4,9 km/h (1 Bft) W-SW 0,48 h 0,8 UV-I 153 W/m 12,8 C 30,4 C 9,8 km/h (2 Bft)
22.06.2017 19:00 26,7 C 29,2 C 49 % 37 % 1009,5 hPa 0,0 l/m 2,6 km/h (1 Bft) W-SW 0,00 h 0,5 UV-I 76 W/m 12,8 C 29,2 C 4,8 km/h (1 Bft)
22.06.2017 20:00 26,7 C 28,1 C 49 % 42 % 1009,3 hPa 0,0 l/m 2,8 km/h (1 Bft) W-SW 0,00 h 0,0 UV-I 17 W/m 13,8 C 28,1 C 3,6 km/h (1 Bft)
22.06.2017 21:00 26,8 C 25,3 C 49 % 53 % 1009,8 hPa 0,0 l/m 10,7 km/h (2 Bft) N 0,00 h 0,0 UV-I 5 W/m 15,0 C 24,0 C 16,3 km/h (3 Bft)
22.06.2017 22:00 26,8 C 20,0 C 50 % 77 % 1009,9 hPa 0,0 l/m 3,7 km/h (1 Bft) N 0,00 h 0,0 UV-I 0 W/m 15,8 C 19,5 C 3,8 km/h (1 Bft)
22.06.2017 23:00 26,5 C 19,0 C 53 % 85 % 1008,4 hPa 0,2 l/m 0,0 km/h (0 Bft) N 0,00 h 0,0 UV-I 0 W/m 16,3 C 19,0 C 0,0 km/h (0 Bft)
23.06.2017 00:00 26,4 C 18,2 C 53 % 89 % 1009,4 hPa 2,2 l/m 7,6 km/h (2 Bft) N 0,00 h 0,0 UV-I 0 W/m 16,4 C 16,7 C 12,5 km/h (3 Bft)
23.06.2017 01:00 26,6 C 17,1 C 53 % 92 % 1008,7 hPa 0,0 l/m 0,7 km/h (0 Bft) N 0,00 h 0,0 UV-I 0 W/m 15,8 C 17,0 C 0,1 km/h (0 Bft)
23.06.2017 02:00 26,4 C 17,0 C 54 % 93 % 1008,6 hPa 0,0 l/m 0,0 km/h (0 Bft) N 0,00 h 0,0 UV-I 0 W/m 15,8 C 17,0 C 0,0 km/h (0 Bft)
23.06.2017 03:00 26,7 C 16,5 C 54 % 95 % 1008,8 hPa 0,0 l/m 0,0 km/h (0 Bft) N 0,00 h 0,0 UV-I 0 W/m 15,6 C 16,5 C 0,0 km/h (0 Bft)
23.06.2017 04:00 26,9 C 16,3 C 54 % 96 % 1008,8 hPa 0,0 l/m 0,0 km/h (0 Bft) N 0,00 h 0,0 UV-I 0 W/m 15,6 C 16,3 C 0,0 km/h (0 Bft)
23.06.2017 05:00 26,8 C 16,9 C 54 % 95 % 1009,4 hPa 0,0 l/m 0,2 km/h (0 Bft) W 0,00 h 0,0 UV-I 15 W/m 16,1 C 16,9 C 0,2 km/h (0 Bft)
23.06.2017 06:00 26,8 C 18,3 C 54 % 90 % 1009,8 hPa 0,0 l/m 6,8 km/h (2 Bft) W-NW 0,00 h 0,5 UV-I 58 W/m 16,6 C 17,7 C 7,6 km/h (2 Bft)
23.06.2017 07:00 26,7 C 18,9 C 54 % 86 % 1010,4 hPa 0,0 l/m 8,4 km/h (2 Bft) W-NW 0,57 h 0,8 UV-I 205 W/m 16,4 C 17,7 C 13,3 km/h (3 Bft)
23.06.2017 08:00 26,0 C 20,0 C 54 % 78 % 1011,1 hPa 0,0 l/m 4,1 km/h (1 Bft) W 1,00 h 1,8 UV-I 418 W/m 16,1 C 19,7 C 9,1 km/h (2 Bft)
23.06.2017 09:00 26,3 C 21,5 C 54 % 72 % 1011,5 hPa 0,0 l/m 5,9 km/h (2 Bft) W-SW 1,00 h 2,8 UV-I 547 W/m 16,1 C 21,0 C 10,6 km/h (2 Bft)
23.06.2017 10:00 26,5 C 23,0 C 53 % 64 % 1011,9 hPa 0,0 l/m 6,3 km/h (2 Bft) W-SW 1,00 h 4,3 UV-I 720 W/m 15,8 C 22,6 C 9,8 km/h (2 Bft)
23.06.2017 11:00 26,7 C 24,0 C 52 % 58 % 1012,3 hPa 0,0 l/m 9,0 km/h (2 Bft) W 1,00 h 5,6 UV-I 776 W/m 15,2 C 23,2 C 13,8 km/h (3 Bft)
23.06.2017 12:00 26,7 C 25,2 C 51 % 53 % 1012,2 hPa 0,0 l/m 8,6 km/h (2 Bft) W-SW 1,00 h 6,7 UV-I 919 W/m 14,8 C 24,5 C 16,0 km/h (3 Bft)
23.06.2017 13:00 26,8 C 24,8 C 51 % 53 % 1012,4 hPa 0,0 l/m 10,1 km/h (2 Bft) W 1,00 h 6,3 UV-I 723 W/m 14,5 C 23,9 C 17,8 km/h (3 Bft)
23.06.2017 14:00 26,6 C 24,1 C 51 % 55 % 1012,7 hPa 0,0 l/m 8,0 km/h (2 Bft) W-SW 1,00 h 5,5 UV-I 645 W/m 14,4 C 23,5 C 14,7 km/h (3 Bft)
23.06.2017 15:00 26,6 C 24,8 C 51 % 52 % 1013,0 hPa 0,0 l/m 8,5 km/h (2 Bft) W-NW 1,00 h 5,2 UV-I 685 W/m 14,4 C 24,2 C 14,6 km/h (3 Bft)
23.06.2017 16:00 26,6 C 24,5 C 50 % 52 % 1013,0 hPa 0,0 l/m 8,4 km/h (2 Bft) NW 1,00 h 2,9 UV-I 351 W/m 14,0 C 23,8 C 12,6 km/h (3 Bft)
23.06.2017 17:00 26,6 C 24,2 C 50 % 51 % 1013,0 hPa 0,0 l/m 6,7 km/h (2 Bft) W-NW 1,00 h 1,9 UV-I 305 W/m 13,5 C 23,8 C 12,5 km/h (3 Bft)
23.06.2017 18:00 26,0 C 23,7 C 50 % 52 % 1013,1 hPa 0,0 l/m 5,5 km/h (1 Bft) W-NW 0,53 h 1,0 UV-I 158 W/m 13,1 C 23,4 C 9,7 km/h (2 Bft)
23.06.2017 19:00 25,9 C 23,1 C 51 % 54 % 1013,3 hPa 0,0 l/m 5,9 km/h (2 Bft) W-NW 0,00 h 0,6 UV-I 103 W/m 13,3 C 22,7 C 11,3 km/h (2 Bft)
23.06.2017 20:00 25,9 C 22,1 C 51 % 59 % 1013,6 hPa 0,0 l/m 2,8 km/h (1 Bft) W-NW 0,00 h 0,0 UV-I 24 W/m 13,6 C 22,0 C 6,3 km/h (2 Bft)
23.06.2017 21:00 25,9 C 20,7 C 51 % 63 % 1014,1 hPa 0,0 l/m 0,2 km/h (0 Bft) W-NW 0,00 h 0,0 UV-I 6 W/m 13,3 C 20,7 C 0,8 km/h (0 Bft)
23.06.2017 22:00 26,0 C 18,6 C 49 % 70 % 1014,7 hPa 0,0 l/m 0,0 km/h (0 Bft) N 0,00 h 0,0 UV-I 0 W/m 12,9 C 18,6 C 0,0 km/h (0 Bft)
23.06.2017 23:00 26,4 C 17,0 C 48 % 77 % 1015,0 hPa 0,0 l/m 0,0 km/h (0 Bft) N 0,00 h 0,0 UV-I 0 W/m 12,9 C 17,0 C 0,0 km/h (0 Bft)
24.06.2017 00:00 26,3 C 15,6 C 49 % 84 % 1015,2 hPa 0,0 l/m 0,0 km/h (0 Bft) N 0,00 h 0,0 UV-I 0 W/m 12,9 C 15,6 C 0,0 km/h (0 Bft)
24.06.2017 01:00 26,2 C 15,2 C 50 % 85 % 1015,1 hPa 0,0 l/m 0,0 km/h (0 Bft) N 0,00 h 0,0 UV-I 0 W/m 12,7 C 15,2 C 0,0 km/h (0 Bft)
24.06.2017 02:00 26,1 C 13,9 C 50 % 90 % 1015,0 hPa 0,0 l/m 0,0 km/h (0 Bft) N 0,00 h 0,0 UV-I 0 W/m 12,2 C 13,9 C 0,0 km/h (0 Bft)
24.06.2017 03:00 26,1 C 13,2 C 50 % 91 % 1014,9 hPa 0,0 l/m 0,0 km/h (0 Bft) N 0,00 h 0,0 UV-I 0 W/m 11,8 C 13,2 C 0,0 km/h (0 Bft)
24.06.2017 04:00 26,1 C 12,9 C 50 % 92 % 1014,6 hPa 0,0 l/m 0,0 km/h (0 Bft) N 0,00 h 0,0 UV-I 0 W/m 11,6 C 12,9 C 0,0 km/h (0 Bft)
24.06.2017 05:00 26,1 C 13,1 C 50 % 91 % 1014,7 hPa 0,0 l/m 0,0 km/h (0 Bft) N 0,00 h 0,0 UV-I 10 W/m 11,7 C 13,1 C 0,0 km/h (0 Bft)
24.06.2017 06:00 26,0 C 14,1 C 50 % 88 % 1015,1 hPa 0,0 l/m 0,0 km/h (0 Bft) N 0,00 h 0,0 UV-I 26 W/m 12,2 C 14,1 C 0,0 km/h (0 Bft)
24.06.2017 07:00 26,2 C 16,8 C 50 % 80 % 1015,3 hPa 0,0 l/m 0,8 km/h (0 Bft) S 0,62 h 1,0 UV-I 218 W/m 13,3 C 16,7 C 1,3 km/h (1 Bft)
24.06.2017 08:00 26,3 C 19,2 C 50 % 71 % 1015,1 hPa 0,0 l/m 4,6 km/h (1 Bft) SW 1,00 h 1,8 UV-I 473 W/m 13,8 C 18,9 C 6,3 km/h (2 Bft)
24.06.2017 09:00 26,2 C 20,5 C 49 % 65 % 1015,1 hPa 0,0 l/m 6,0 km/h (2 Bft) W-SW 1,00 h 2,8 UV-I 584 W/m 13,6 C 20,1 C 8,5 km/h (2 Bft)
24.06.2017 10:00 26,4 C 22,0 C 48 % 56 % 1014,6 hPa 0,0 l/m 8,2 km/h (2 Bft) N 1,00 h 4,6 UV-I 745 W/m 12,9 C 21,2 C 11,3 km/h (2 Bft)
24.06.2017 11:00 26,5 C 23,1 C 48 % 49 % 1014,2 hPa 0,0 l/m 10,5 km/h (2 Bft) W-SW 1,00 h 6,3 UV-I 852 W/m 11,9 C 22,1 C 18,8 km/h (3 Bft)
24.06.2017 12:00 26,7 C 24,5 C 49 % 46 % 1013,9 hPa 0,0 l/m 9,3 km/h (2 Bft) W-SW 1,00 h 7,2 UV-I 892 W/m 12,1 C 23,7 C 15,7 km/h (3 Bft)
24.06.2017 13:00 26,6 C 25,4 C 47 % 43 % 1013,4 hPa 0,0 l/m 11,4 km/h (2 Bft) W-SW 0,98 h 7,4 UV-I 894 W/m 11,8 C 24,4 C 19,0 km/h (3 Bft)
24.06.2017 14:00 26,6 C 26,3 C 47 % 39 % 1013,2 hPa 0,0 l/m 12,8 km/h (3 Bft) W-SW 1,02 h 6,6 UV-I 850 W/m 11,4 C 25,2 C 20,7 km/h (4 Bft)
24.06.2017 15:00 26,6 C 26,8 C 47 % 39 % 1012,8 hPa 0,0 l/m 10,1 km/h (2 Bft) W 1,00 h 5,5 UV-I 780 W/m 11,8 C 26,2 C 17,0 km/h (3 Bft)
24.06.2017 16:00 26,6 C 26,5 C 46 % 37 % 1012,5 hPa 0,0 l/m 11,5 km/h (2 Bft) W 1,00 h 3,8 UV-I 593 W/m 10,8 C 25,6 C 20,1 km/h (4 Bft)
24.06.2017 17:00 26,8 C 25,9 C 45 % 38 % 1012,4 hPa 0,0 l/m 10,4 km/h (2 Bft) W-SW 0,93 h 2,5 UV-I 478 W/m 10,5 C 25,1 C 16,6 km/h (3 Bft)
24.06.2017 18:00 26,8 C 24,7 C 47 % 41 % 1012,4 hPa 0,0 l/m 9,3 km/h (2 Bft) W-SW 0,00 h 0,0 UV-I 44 W/m 10,4 C 23,9 C 16,1 km/h (3 Bft)
24.06.2017 19:00 26,9 C 23,8 C 46 % 45 % 1012,5 hPa 0,0 l/m 5,5 km/h (1 Bft) W-SW 0,00 h 0,0 UV-I 33 W/m 11,0 C 23,5 C 11,5 km/h (2 Bft)
24.06.2017 20:00 26,9 C 22,7 C 46 % 48 % 1012,4 hPa 0,0 l/m 3,5 km/h (1 Bft) W 0,00 h 0,0 UV-I 19 W/m 11,0 C 22,6 C 8,0 km/h (2 Bft)
24.06.2017 21:00 26,7 C 20,8 C 43 % 49 % 1012,8 hPa 0,0 l/m 0,9 km/h (0 Bft) W 0,00 h 0,0 UV-I 7 W/m 9,6 C 20,8 C 2,3 km/h (1 Bft)
24.06.2017 22:00 26,7 C 18,4 C 43 % 56 % 1013,5 hPa 0,0 l/m 0,0 km/h (0 Bft) N 0,00 h 0,0 UV-I 0 W/m 9,3 C 18,4 C 0,0 km/h (0 Bft)
24.06.2017 23:00 26,4 C 15,9 C 44 % 68 % 1013,9 hPa 0,0 l/m 0,0 km/h (0 Bft) N 0,00 h 0,0 UV-I 0 W/m 9,9 C 15,9 C 0,0 km/h (0 Bft)
25.06.2017 00:00 26,4 C 14,7 C 44 % 74 % 1013,9 hPa 0,0 l/m 0,0 km/h (0 Bft) N 0,00 h 0,0 UV-I 0 W/m 10,2 C 14,7 C 0,0 km/h (0 Bft)
25.06.2017 01:00 26,3 C 13,5 C 45 % 79 % 1013,6 hPa 0,0 l/m 0,0 km/h (0 Bft) N 0,00 h 0,0 UV-I 0 W/m 10,0 C 13,5 C 0,0 km/h (0 Bft)
25.06.2017 02:00 26,3 C 12,4 C 45 % 82 % 1013,2 hPa 0,0 l/m 0,0 km/h (0 Bft) N 0,00 h 0,0 UV-I 0 W/m 9,5 C 12,4 C 0,0 km/h (0 Bft)
25.06.2017 03:00 26,2 C 11,4 C 45 % 86 % 1012,8 hPa 0,0 l/m 0,0 km/h (0 Bft) N 0,00 h 0,0 UV-I 0 W/m 9,1 C 11,4 C 0,0 km/h (0 Bft)
25.06.2017 04:00 26,3 C 10,9 C 46 % 88 % 1012,6 hPa 0,0 l/m 0,0 km/h (0 Bft) N 0,00 h 0,0 UV-I 0 W/m 8,9 C 10,9 C 0,0 km/h (0 Bft)
25.06.2017 05:00 26,1 C 10,7 C 46 % 89 % 1012,6 hPa 0,0 l/m 0,0 km/h (0 Bft) N 0,00 h 0,0 UV-I 11 W/m 8,9 C 10,7 C 0,0 km/h (0 Bft)
25.06.2017 06:00 26,2 C 11,9 C 46 % 86 % 1012,2 hPa 0,0 l/m 0,0 km/h (0 Bft) N 0,00 h 0,0 UV-I 29 W/m 9,6 C 11,9 C 0,0 km/h (0 Bft)
25.06.2017 07:00 26,3 C 16,0 C 46 % 73 % 1012,1 hPa 0,0 l/m 0,0 km/h (0 Bft) N 0,60 h 1,0 UV-I 228 W/m 11,2 C 16,0 C 0,0 km/h (0 Bft)
25.06.2017 08:00 26,1 C 19,4 C 45 % 62 % 1012,0 hPa 0,0 l/m 5,6 km/h (1 Bft) W-SW 0,98 h 1,5 UV-I 296 W/m 11,8 C 18,9 C 8,0 km/h (2 Bft)
25.06.2017 09:00 26,2 C 19,4 C 45 % 61 % 1012,3 hPa 0,0 l/m 6,8 km/h (2 Bft) N 1,02 h 1,8 UV-I 265 W/m 11,8 C 18,8 C 5,7 km/h (1 Bft)
25.06.2017 10:00 26,4 C 20,4 C 46 % 59 % 1012,5 hPa 0,0 l/m 7,8 km/h (2 Bft) W-SW 1,00 h 3,2 UV-I 457 W/m 12,1 C 19,6 C 13,6 km/h (3 Bft)
25.06.2017 11:00 26,3 C 21,7 C 46 % 55 % 1012,2 hPa 0,0 l/m 7,4 km/h (2 Bft) W-SW 1,00 h 4,6 UV-I 644 W/m 12,2 C 21,1 C 11,6 km/h (2 Bft)
25.06.2017 12:00 26,4 C 22,2 C 45 % 52 % 1011,9 hPa 0,0 l/m 7,9 km/h (2 Bft) W-SW 1,00 h 4,4 UV-I 469 W/m 11,9 C 21,5 C 13,8 km/h (3 Bft)
25.06.2017 13:00 26,3 C 23,0 C 45 % 47 % 1011,8 hPa 0,0 l/m 7,7 km/h (2 Bft) W 0,88 h 3,9 UV-I 482 W/m 11,1 C 22,4 C 14,0 km/h (3 Bft)
25.06.2017 14:00 26,2 C 23,3 C 43 % 47 % 1011,6 hPa 0,0 l/m 7,1 km/h (2 Bft) W-SW 1,00 h 3,4 UV-I 382 W/m 11,2 C 22,8 C 13,2 km/h (3 Bft)
25.06.2017 15:00 26,3 C 24,3 C 42 % 44 % 1011,2 hPa 0,0 l/m 9,2 km/h (2 Bft) W-SW 1,00 h 4,2 UV-I 689 W/m 11,4 C 23,5 C 17,2 km/h (3 Bft)
25.06.2017 16:00 26,4 C 24,2 C 42 % 45 % 1010,9 hPa 0,0 l/m 9,5 km/h (2 Bft) W-SW 1,00 h 2,9 UV-I 464 W/m 11,6 C 23,3 C 17,2 km/h (3 Bft)
25.06.2017 17:00 26,5 C 23,8 C 42 % 45 % 1010,9 hPa 0,0 l/m 8,3 km/h (2 Bft) W-SW 1,00 h 1,9 UV-I 341 W/m 11,2 C 23,1 C 15,1 km/h (3 Bft)
25.06.2017 18:00 26,5 C 22,5 C 44 % 50 % 1011,4 hPa 0,0 l/m 7,8 km/h (2 Bft) W-SW 0,23 h 0,7 UV-I 119 W/m 11,7 C 22,0 C 12,5 km/h (3 Bft)
25.06.2017 19:00 26,6 C 21,7 C 45 % 54 % 1011,2 hPa 0,0 l/m 6,0 km/h (2 Bft) W-SW 0,00 h 0,5 UV-I 57 W/m 11,9 C 21,4 C 10,2 km/h (2 Bft)
25.06.2017 20:00 26,6 C 21,2 C 45 % 56 % 1011,4 hPa 0,0 l/m 7,9 km/h (2 Bft) W-SW 0,00 h 0,0 UV-I 30 W/m 12,1 C 20,4 C 14,4 km/h (3 Bft)
25.06.2017 21:00 26,7 C 20,4 C 46 % 59 % 1011,8 hPa 0,0 l/m 6,3 km/h (2 Bft) W 0,00 h 0,0 UV-I 5 W/m 12,2 C 20,0 C 11,4 km/h (2 Bft)
25.06.2017 22:00 26,6 C 19,1 C 47 % 65 % 1011,9 hPa 0,0 l/m 0,9 km/h (0 Bft) W-SW 0,00 h 0,0 UV-I 0 W/m 12,4 C 19,1 C 2,4 km/h (1 Bft)
25.06.2017 23:00 26,4 C 17,9 C 46 % 70 % 1012,3 hPa 0,0 l/m 0,9 km/h (0 Bft) W-SW 0,00 h 0,0 UV-I 0 W/m 12,4 C 17,9 C 2,4 km/h (1 Bft)
Min-Datum _ 19.06.17 24.06.17 25.06.17 20.06.17 23.06.17 - 19.06.17 - - - - 25.06.17 19.06.17 19.06.17
_ Min-Zeit 09:20 07:35 15:28 17:43 00:09 - 00:00 - - - - 05:20 05:32 00:00
Minimum _ 24,7 C 0,0 C 40 % 26 % 1007,5 hPa - 0,0 km/h (0 Bft) - - - - 8,6 C 10,0 C 0,0 km/h (0 Bft)
Max-Datum _ 22.06.17 22.06.17 23.06.17 23.06.17 19.06.17 23.06.17 23.06.17 - 25.06.17 23.06.17 25.06.17 21.06.17 22.06.17 23.06.17
_ Max-Zeit 22:44 16:18 02:35 04:10 00:04 00:06 00:29 - 09:02 12:19 13:25 14:41 16:19 00:30
Maximum _ 27,1 C 32,6 C 55 % 96 % 1023,6 hPa 2,2 l/m 37,0 km/h
N (5 Bft)
- 0,07 h 8,0 UV-I 1134 W/m 19,7 C 32,6 C 54,7 km/h
N-NO (7 Bft)
Durchschnitt _ 26,0 C 21,3 C 49 % 63 % 1014,3 hPa #2,4 l/m 3,4 km/h (1 Bft) W-SW #75:17 h 3,5 UV-I 397 W/m 13,0 C 21,1 C 5,8 km/h (2 Bft)